Time;durP1;ratioP1;P1;durP2;ratioP2;P2;SDS_P1;SDS_P2;PMS_P1;PMS_P2;Temp;Humidity;BMP_temperature;BMP_pressure;BME280_temperature;BME280_humidity;BME280_pressure;Samples;Min_cycle;Max_cycle;Signal;HPM_P1;HPM_P2
2021/06/18 00:01:32;;;;;;;58.20;41.67;;;19.10;99.90;;;;;;5071047;28;20404;-76
2021/06/18 00:03:58;;;;;;;54.60;38.75;;;19.30;99.90;;;;;;5070823;28;20020;-76
2021/06/18 00:06:24;;;;;;;39.75;31.95;;;19.20;99.90;;;;;;5070106;28;20024;-77
2021/06/18 00:08:49;;;;;;;36.92;28.65;;;19.20;99.90;;;;;;5092264;28;20028;-76
2021/06/18 00:11:15;;;;;;;49.20;37.65;;;19.10;99.90;;;;;;5096660;28;20081;-76
2021/06/18 00:13:40;;;;;;;53.28;39.30;;;19.10;99.90;;;;;;5092285;28;20036;-76
2021/06/18 00:16:06;;;;;;;55.70;43.17;;;19.10;99.90;;;;;;5092306;28;20645;-76
2021/06/18 00:18:31;;;;;;;61.55;47.50;;;19.00;99.90;;;;;;5092338;28;20024;-76
2021/06/18 00:20:57;;;;;;;60.88;49.03;;;19.00;99.90;;;;;;5092374;28;20537;-76
2021/06/18 00:23:22;;;;;;;71.80;53.25;;;19.10;99.90;;;;;;5092230;28;20101;-76
2021/06/18 00:25:48;;;;;;;69.47;55.40;;;19.00;99.90;;;;;;5090656;28;20022;-76
2021/06/18 00:28:13;;;;;;;82.18;59.10;;;18.90;99.90;;;;;;5092221;28;20055;-76
2021/06/18 00:30:42;;;;;;;86.10;64.18;;;18.90;99.90;;;;;;5090806;28;20051;-76
2021/06/18 00:33:08;;;;;;;92.45;63.70;;;18.90;99.90;;;;;;5092172;28;20024;-76
2021/06/18 00:35:34;;;;;;;101.60;68.25;;;18.90;99.90;;;;;;5091973;28;20052;-76
2021/06/18 00:38:00;;;;;;;82.57;62.20;;;18.80;99.90;;;;;;5090831;28;20456;-76
2021/06/18 00:40:25;;;;;;;95.65;68.20;;;18.80;99.90;;;;;;5091928;28;20028;-76
2021/06/18 00:42:51;;;;;;;115.35;72.40;;;18.70;99.90;;;;;;5091919;28;20495;-76
2021/06/18 00:45:17;;;;;;;88.78;68.40;;;18.60;99.90;;;;;;5090648;28;20020;-76
2021/06/18 00:47:49;;;;;;;104.50;79.97;;;18.60;99.90;;;;;;5091000;28;20027;-76
2021/06/18 00:50:16;;;;;;;122.85;81.43;;;18.40;99.90;;;;;;5091979;28;20016;-76
2021/06/18 00:52:42;;;;;;;113.07;82.90;;;18.40;99.90;;;;;;5090704;28;20032;-76
2021/06/18 00:55:10;;;;;;;116.18;79.78;;;18.30;99.90;;;;;;5080522;28;20122;-77
2021/06/18 00:57:37;;;;;;;130.48;91.55;;;18.20;99.90;;;;;;5071626;28;20081;-76
2021/06/18 01:00:08;;;;;;;124.57;90.20;;;18.20;99.90;;;;;;5071663;28;20153;-76
2021/06/18 01:02:33;;;;;;;133.65;98.20;;;18.20;99.90;;;;;;5071669;28;20013;-76
2021/06/18 01:05:00;;;;;;;141.88;100.22;;;18.20;99.90;;;;;;5071479;28;20028;-76
2021/06/18 01:07:35;;;;;;;148.90;101.55;;;18.10;99.90;;;;;;5071672;28;20096;-76
2021/06/18 01:10:30;;;;;;;140.35;101.75;;;18.10;99.90;;;;;;5071184;28;20477;-76
2021/06/18 01:13:15;;;;;;;143.63;104.85;;;18.00;99.90;;;;;;5071583;28;20037;-77
2021/06/18 01:16:02;;;;;;;140.80;97.70;;;18.00;99.90;;;;;;5070105;28;20111;-76
2021/06/18 01:18:35;;;;;;;150.10;107.53;;;17.90;99.90;;;;;;5073258;28;20028;-76
2021/06/18 01:21:15;;;;;;;144.50;101.15;;;17.80;99.90;;;;;;5075307;28;20074;-76
2021/06/18 01:23:59;;;;;;;151.90;106.03;;;17.80;99.90;;;;;;5075185;28;20056;-76
2021/06/18 01:26:42;;;;;;;170.82;114.50;;;17.80;99.90;;;;;;5075306;28;20091;-76
2021/06/18 01:29:08;;;;;;;122.20;88.32;;;17.70;99.90;;;;;;5075278;28;20108;-76
2021/06/18 01:31:39;;;;;;;128.70;90.53;;;17.70;99.90;;;;;;5073862;28;20111;-76
2021/06/18 01:34:12;;;;;;;143.73;97.43;;;17.60;99.90;;;;;;5073668;28;20029;-76
2021/06/18 01:36:40;;;;;;;120.85;85.03;;;17.60;99.90;;;;;;5075191;28;20025;-77
2021/06/18 01:39:06;;;;;;;150.57;106.68;;;17.50;99.90;;;;;;5074907;28;20111;-76
2021/06/18 01:41:32;;;;;;;127.30;89.85;;;17.40;99.90;;;;;;5074895;28;20441;-76
2021/06/18 01:44:00;;;;;;;151.55;105.32;;;17.40;99.90;;;;;;5074630;28;20031;-77
2021/06/18 01:46:30;;;;;;;158.32;106.78;;;17.40;99.90;;;;;;5074850;28;20064;-76
2021/06/18 01:48:58;;;;;;;159.85;106.22;;;17.30;99.90;;;;;;5074937;28;20469;-76
2021/06/18 01:51:26;;;;;;;173.77;119.20;;;17.40;99.90;;;;;;5074853;28;20146;-76
2021/06/18 01:53:54;;;;;;;184.80;124.88;;;17.30;99.90;;;;;;5074322;28;20020;-76
2021/06/18 01:56:20;;;;;;;174.15;118.72;;;17.30;99.90;;;;;;5073473;28;20029;-76
2021/06/18 01:58:49;;;;;;;205.25;130.77;;;17.40;99.90;;;;;;5073354;28;20455;-76
2021/06/18 02:01:15;;;;;;;196.18;126.80;;;17.40;99.90;;;;;;5074650;28;20477;-76
2021/06/18 02:03:44;;;;;;;144.40;95.82;;;17.30;99.90;;;;;;5074362;28;20028;-76
2021/06/18 02:06:10;;;;;;;130.63;93.78;;;17.30;99.90;;;;;;5073168;28;20024;-76
2021/06/18 02:08:38;;;;;;;189.93;124.30;;;17.30;99.90;;;;;;5074394;28;20016;-76
2021/06/18 02:11:04;;;;;;;189.80;123.55;;;17.20;99.90;;;;;;5074241;28;20024;-76
2021/06/18 02:13:32;;;;;;;161.82;110.70;;;17.20;99.90;;;;;;5073151;28;20024;-76
2021/06/18 02:15:59;;;;;;;144.13;99.68;;;17.20;99.90;;;;;;5074149;28;20504;-76
2021/06/18 02:18:26;;;;;;;157.05;102.55;;;17.20;99.90;;;;;;5073099;28;20028;-76
2021/06/18 02:20:55;;;;;;;155.60;109.03;;;17.20;99.90;;;;;;5074108;28;20103;-77
2021/06/18 02:23:22;;;;;;;152.13;110.43;;;17.10;99.90;;;;;;5072790;28;20116;-76
2021/06/18 02:25:48;;;;;;;204.60;133.90;;;17.10;99.90;;;;;;5073992;28;20051;-76
2021/06/18 02:28:14;;;;;;;208.68;134.45;;;17.10;99.90;;;;;;5074109;28;20020;-76
2021/06/18 02:30:40;;;;;;;198.15;127.93;;;17.00;99.90;;;;;;5072955;28;20029;-76
2021/06/18 02:33:11;;;;;;;208.27;128.73;;;17.10;99.90;;;;;;5074077;28;20036;-76
2021/06/18 02:35:38;;;;;;;193.25;131.00;;;17.00;99.90;;;;;;5072533;28;20024;-76
2021/06/18 02:38:04;;;;;;;169.32;108.05;;;17.00;99.90;;;;;;5072743;28;20537;-77
2021/06/18 02:40:30;;;;;;;168.90;111.60;;;17.00;99.90;;;;;;5073937;28;20032;-77
2021/06/18 02:42:55;;;;;;;155.50;100.22;;;17.00;99.90;;;;;;5072617;28;20029;-77
2021/06/18 02:45:21;;;;;;;145.98;96.07;;;16.90;99.90;;;;;;5072360;28;20028;-76
2021/06/18 02:47:56;;;;;;;170.63;110.53;;;16.80;99.90;;;;;;5071751;28;20036;-76
2021/06/18 02:50:59;;;;;;;203.35;128.98;;;16.80;99.90;;;;;;5073258;28;20024;-76
2021/06/18 02:53:27;;;;;;;216.20;140.73;;;16.80;99.90;;;;;;5072452;28;20035;-76
2021/06/18 02:56:00;;;;;;;226.95;145.45;;;16.90;99.90;;;;;;5090666;28;20056;-76
2021/06/18 02:58:29;;;;;;;228.30;142.20;;;16.90;99.90;;;;;;5093792;28;20035;-76
2021/06/18 03:00:55;;;;;;;239.52;144.35;;;16.90;99.90;;;;;;5093666;28;20262;-76
2021/06/18 03:03:31;;;;;;;203.55;128.82;;;16.90;99.90;;;;;;5093665;28;20036;-76
2021/06/18 03:06:01;;;;;;;214.77;128.38;;;16.90;99.90;;;;;;5093576;28;20537;-76
2021/06/18 03:08:34;;;;;;;204.27;134.13;;;16.80;99.90;;;;;;5093621;28;20047;-76
2021/06/18 03:11:01;;;;;;;172.13;112.88;;;16.80;99.90;;;;;;5102745;28;20036;-76
2021/06/18 03:13:31;;;;;;;150.25;97.80;;;16.80;99.90;;;;;;5095151;28;20039;-76
2021/06/18 03:15:57;;;;;;;168.45;114.95;;;16.70;99.90;;;;;;5092198;28;20028;-76
2021/06/18 03:18:24;;;;;;;163.98;111.00;;;16.70;99.90;;;;;;5092236;28;20431;-77
2021/06/18 03:20:54;;;;;;;176.43;115.50;;;16.70;99.90;;;;;;5093395;28;20024;-77
2021/06/18 03:23:21;;;;;;;156.68;106.40;;;16.70;99.90;;;;;;5093207;28;20055;-77
2021/06/18 03:25:47;;;;;;;148.10;100.82;;;16.70;99.90;;;;;;5091874;28;20020;-77
2021/06/18 03:28:13;;;;;;;150.90;102.80;;;16.70;99.90;;;;;;5093286;28;20127;-76
2021/06/18 03:30:40;;;;;;;147.98;96.93;;;16.70;99.90;;;;;;5093200;28;20020;-76
2021/06/18 03:33:07;;;;;;;147.70;102.20;;;16.60;99.90;;;;;;5091889;28;20024;-76
2021/06/18 03:35:33;;;;;;;148.77;102.05;;;16.70;99.90;;;;;;5091615;28;20547;-76
2021/06/18 03:38:00;;;;;;;151.68;99.93;;;16.70;99.90;;;;;;5092988;28;20038;-76
2021/06/18 03:40:27;;;;;;;143.48;95.90;;;16.80;99.90;;;;;;5091536;28;20085;-77
2021/06/18 03:42:53;;;;;;;137.45;89.47;;;16.80;99.90;;;;;;5093000;28;20044;-76
2021/06/18 03:45:21;;;;;;;221.73;136.23;;;16.80;99.90;;;;;;5092771;28;20020;-77
2021/06/18 03:47:48;;;;;;;243.90;151.77;;;16.90;99.90;;;;;;5092893;28;20110;-76
2021/06/18 03:50:19;;;;;;;241.77;148.40;;;17.00;99.90;;;;;;5091494;28;20523;-76
2021/06/18 03:52:44;;;;;;;252.90;153.35;;;17.00;99.90;;;;;;5091530;28;20119;-76
2021/06/18 03:55:10;;;;;;;242.00;148.68;;;17.20;99.90;;;;;;5079719;28;20103;-76
2021/06/18 03:57:37;;;;;;;229.15;138.40;;;17.20;99.90;;;;;;5072468;28;20093;-77
2021/06/18 04:00:05;;;;;;;222.05;137.35;;;17.30;99.90;;;;;;5073121;28;20029;-77
2021/06/18 04:02:32;;;;;;;238.50;139.60;;;17.30;99.90;;;;;;5072480;28;20028;-76
2021/06/18 04:05:01;;;;;;;229.60;146.40;;;17.30;99.90;;;;;;5070510;28;20032;-76
2021/06/18 04:07:27;;;;;;;243.57;155.35;;;17.50;99.90;;;;;;5071052;28;20028;-77
2021/06/18 04:09:53;;;;;;;230.00;145.80;;;17.50;99.90;;;;;;5072076;28;20518;-76
2021/06/18 04:12:19;;;;;;;232.55;147.98;;;17.60;99.90;;;;;;5072211;28;20436;-76
2021/06/18 04:14:45;;;;;;;232.43;148.55;;;17.60;99.90;;;;;;5072058;28;20025;-76
2021/06/18 04:17:11;;;;;;;222.50;140.07;;;17.70;99.90;;;;;;5072162;28;20508;-76
2021/06/18 04:19:37;;;;;;;255.40;153.13;;;17.70;99.90;;;;;;5072021;28;20035;-76
2021/06/18 04:22:05;;;;;;;215.48;140.70;;;17.80;99.90;;;;;;5070652;28;20052;-76
2021/06/18 04:24:32;;;;;;;218.48;139.07;;;17.80;99.90;;;;;;5071777;28;20060;-76
2021/06/18 04:26:57;;;;;;;214.35;144.15;;;17.90;99.90;;;;;;5072082;28;20050;-76
2021/06/18 04:29:23;;;;;;;218.68;144.75;;;17.90;99.90;;;;;;5070848;28;20480;-76
2021/06/18 04:31:49;;;;;;;221.38;141.73;;;17.90;99.90;;;;;;5070748;28;20032;-77
2021/06/18 04:34:15;;;;;;;210.98;139.27;;;17.90;99.90;;;;;;5071836;28;20024;-77
2021/06/18 04:36:41;;;;;;;206.05;138.85;;;18.00;99.90;;;;;;5070952;28;20028;-76
2021/06/18 04:39:08;;;;;;;236.70;143.93;;;18.00;99.90;;;;;;5072424;28;20433;-77
2021/06/18 04:41:35;;;;;;;232.32;151.65;;;17.90;99.90;;;;;;5072048;28;20159;-77
2021/06/18 04:44:01;;;;;;;209.98;142.80;;;17.90;99.90;;;;;;5071691;28;20401;-76
2021/06/18 04:46:26;;;;;;;201.10;135.80;;;17.90;99.90;;;;;;5071810;28;20082;-76
2021/06/18 04:48:52;;;;;;;195.95;130.65;;;18.00;99.90;;;;;;5071749;28;20025;-76
2021/06/18 04:51:19;;;;;;;204.30;135.20;;;18.10;99.90;;;;;;5071766;28;20032;-76
2021/06/18 04:53:45;;;;;;;181.77;128.25;;;18.20;99.90;;;;;;5072725;28;20032;-77
2021/06/18 04:56:11;;;;;;;201.65;137.90;;;18.20;99.90;;;;;;5075837;28;20377;-77
2021/06/18 04:58:38;;;;;;;166.55;117.03;;;18.30;99.90;;;;;;5074595;28;20031;-77
2021/06/18 05:01:05;;;;;;;187.27;128.00;;;18.50;99.90;;;;;;5074428;28;20028;-76
2021/06/18 05:03:30;;;;;;;185.93;130.63;;;18.50;99.90;;;;;;5075716;28;20035;-76
2021/06/18 05:05:56;;;;;;;197.63;138.55;;;18.60;99.90;;;;;;5075519;28;20245;-76
2021/06/18 05:08:21;;;;;;;174.88;119.53;;;18.70;99.90;;;;;;5075694;28;20024;-77
2021/06/18 05:10:47;;;;;;;157.25;112.13;;;18.80;99.90;;;;;;5074127;28;20036;-77
2021/06/18 05:13:13;;;;;;;158.18;113.78;;;18.90;99.90;;;;;;5075636;28;20435;-76
2021/06/18 05:15:38;;;;;;;155.55;110.70;;;18.90;99.90;;;;;;5074189;28;20067;-76
2021/06/18 05:18:04;;;;;;;143.13;103.18;;;18.90;99.90;;;;;;5075347;28;20477;-77
2021/06/18 05:20:29;;;;;;;161.40;109.63;;;18.90;99.90;;;;;;5074081;28;20078;-76
2021/06/18 05:22:55;;;;;;;144.18;102.32;;;18.90;99.90;;;;;;5075243;28;20021;-76
2021/06/18 05:25:20;;;;;;;142.63;106.45;;;19.10;99.90;;;;;;5073963;28;20102;-76
2021/06/18 05:27:46;;;;;;;140.57;100.88;;;19.00;99.90;;;;;;5074048;28;20025;-76
2021/06/18 05:30:14;;;;;;;147.57;107.35;;;19.00;99.90;;;;;;5075156;28;20021;-76
2021/06/18 05:32:40;;;;;;;128.73;99.43;;;19.00;99.90;;;;;;5075148;28;20013;-76
2021/06/18 05:35:06;;;;;;;134.25;100.43;;;19.20;99.90;;;;;;5074931;28;20384;-77
2021/06/18 05:37:31;;;;;;;131.93;94.03;;;19.10;99.90;;;;;;5075172;28;20029;-77
2021/06/18 05:39:57;;;;;;;132.85;99.70;;;19.20;99.90;;;;;;5073802;28;20044;-76
2021/06/18 05:42:22;;;;;;;118.63;92.30;;;19.30;99.90;;;;;;5075074;28;20029;-75
2021/06/18 05:44:48;;;;;;;114.90;89.38;;;19.40;99.90;;;;;;5074855;28;20064;-75
2021/06/18 05:47:13;;;;;;;105.90;83.28;;;19.60;99.90;;;;;;5075156;28;20475;-75
2021/06/18 05:49:39;;;;;;;108.80;78.70;;;19.60;99.90;;;;;;5075166;28;20082;-76
2021/06/18 05:52:05;;;;;;;100.68;76.65;;;19.80;99.90;;;;;;5074939;28;20035;-75
2021/06/18 05:54:30;;;;;;;94.05;75.50;;;20.00;99.90;;;;;;5080451;28;20028;-75
2021/06/18 05:56:56;;;;;;;88.43;65.80;;;20.20;99.90;;;;;;5095005;28;20422;-75
2021/06/18 05:59:21;;;;;;;86.50;60.83;;;20.30;99.90;;;;;;5094931;28;20043;-75
2021/06/18 06:01:47;;;;;;;70.28;54.88;;;20.40;99.90;;;;;;5092635;28;20127;-75
2021/06/18 06:04:13;;;;;;;63.35;47.55;;;20.50;99.90;;;;;;5094193;28;20024;-75
2021/06/18 06:06:38;;;;;;;67.05;49.15;;;20.60;99.90;;;;;;5094626;28;20024;-75
2021/06/18 06:09:04;;;;;;;58.58;44.72;;;20.80;99.90;;;;;;5094522;28;20030;-75
2021/06/18 06:11:30;;;;;;;52.15;43.13;;;20.90;99.90;;;;;;5093813;28;20020;-75
2021/06/18 06:14:04;;;;;;;52.55;37.53;;;21.10;99.90;;;;;;5105864;28;20028;-75
2021/06/18 06:16:31;;;;;;;44.10;35.58;;;21.10;99.90;;;;;;5094566;28;20043;-75
2021/06/18 06:18:58;;;;;;;39.75;32.95;;;21.20;99.90;;;;;;5094450;28;20093;-75
2021/06/18 06:21:24;;;;;;;44.28;35.65;;;21.30;99.90;;;;;;5093083;28;20024;-75
2021/06/18 06:23:50;;;;;;;43.03;33.40;;;21.50;99.90;;;;;;5092882;28;20024;-75
2021/06/18 06:26:18;;;;;;;44.47;32.95;;;21.60;99.90;;;;;;5093211;28;20024;-75
2021/06/18 06:28:43;;;;;;;48.42;31.50;;;21.60;99.90;;;;;;5094227;28;20035;-75
2021/06/18 06:31:09;;;;;;;45.33;33.45;;;21.80;99.90;;;;;;5092851;28;20020;-75
2021/06/18 06:33:34;;;;;;;40.40;31.92;;;21.80;99.90;;;;;;5077974;28;20039;-76
2021/06/18 06:36:00;;;;;;;39.20;31.30;;;21.80;99.90;;;;;;5094774;28;20024;-75
2021/06/18 06:38:26;;;;;;;38.97;31.30;;;21.80;99.90;;;;;;5089968;28;20028;-75
2021/06/18 06:40:52;;;;;;;38.33;29.80;;;21.70;99.90;;;;;;5089865;28;20067;-75
2021/06/18 06:43:20;;;;;;;39.35;26.65;;;22.00;99.90;;;;;;5088223;28;20032;-75
2021/06/18 06:45:46;;;;;;;43.28;31.00;;;22.20;99.90;;;;;;5089650;28;20154;-75
2021/06/18 06:48:11;;;;;;;46.55;33.17;;;22.30;99.90;;;;;;5089682;28;20396;-75
2021/06/18 06:50:37;;;;;;;44.97;32.70;;;22.30;99.90;;;;;;5088546;28;20020;-75
2021/06/18 06:53:03;;;;;;;38.35;29.35;;;22.70;99.90;;;;;;5088580;28;20056;-76
2021/06/18 06:55:28;;;;;;;34.33;27.58;;;22.60;99.90;;;;;;5089447;28;20491;-75
2021/06/18 06:57:54;;;;;;;37.55;26.70;;;22.70;99.90;;;;;;5086117;28;20027;-75
2021/06/18 07:00:20;;;;;;;43.72;27.95;;;22.70;99.90;;;;;;5090097;28;20107;-76
2021/06/18 07:02:45;;;;;;;31.58;24.52;;;22.90;99.90;;;;;;5089874;28;20024;-75
2021/06/18 07:05:12;;;;;;;39.55;27.45;;;23.00;99.90;;;;;;5089949;28;20058;-76
2021/06/18 07:07:38;;;;;;;32.55;24.40;;;23.20;99.90;;;;;;5095650;28;20032;-76
2021/06/18 07:10:05;;;;;;;32.35;24.05;;;23.30;99.90;;;;;;5089594;28;20035;-75
2021/06/18 07:12:30;;;;;;;29.85;23.25;;;23.40;99.90;;;;;;5081003;28;20476;-75
2021/06/18 07:14:56;;;;;;;30.35;21.75;;;23.40;99.90;;;;;;5088394;28;20031;-75
2021/06/18 07:17:22;;;;;;;32.50;25.13;;;23.60;99.90;;;;;;5091682;28;20397;-75
2021/06/18 07:19:49;;;;;;;30.98;22.60;;;23.60;99.90;;;;;;5091856;28;20031;-75
2021/06/18 07:22:16;;;;;;;32.17;23.60;;;23.80;99.90;;;;;;5093268;28;20022;-75
2021/06/18 07:24:42;;;;;;;35.40;24.77;;;24.10;99.90;;;;;;5092775;28;20107;-76
2021/06/18 07:27:08;;;;;;;31.52;24.80;;;24.10;99.90;;;;;;5091032;28;20024;-76
2021/06/18 07:29:34;;;;;;;34.20;24.27;;;24.00;99.90;;;;;;5093088;28;20411;-76
2021/06/18 07:31:59;;;;;;;40.67;24.80;;;24.00;99.90;;;;;;5092976;28;20480;-76
2021/06/18 07:34:25;;;;;;;31.05;21.58;;;24.10;99.90;;;;;;5090780;28;20489;-76
2021/06/18 07:36:51;;;;;;;26.83;21.38;;;24.20;99.90;;;;;;5092845;28;20078;-76
2021/06/18 07:39:16;;;;;;;24.50;21.73;;;24.20;99.90;;;;;;5092979;28;20031;-75
2021/06/18 07:41:42;;;;;;;29.77;20.10;;;24.40;99.90;;;;;;5092582;28;20028;-76
2021/06/18 07:44:08;;;;;;;34.00;21.58;;;24.60;99.90;;;;;;5090743;28;20031;-75
2021/06/18 07:46:33;;;;;;;31.85;21.58;;;24.60;99.90;;;;;;5071203;28;20036;-75
2021/06/18 07:48:59;;;;;;;24.23;21.23;;;24.60;99.90;;;;;;5071538;28;20032;-74
2021/06/18 07:51:25;;;;;;;23.38;19.00;;;24.70;99.90;;;;;;5072529;28;20017;-74
2021/06/18 07:53:50;;;;;;;28.60;19.80;;;24.80;99.90;;;;;;5072110;28;20035;-74
2021/06/18 07:56:24;;;;;;;27.92;20.80;;;24.60;99.90;;;;;;5072424;28;20480;-73
2021/06/18 07:58:50;;;;;;;;;;;24.60;99.90;;;;;;5077562;28;20024;-74
2021/06/18 08:01:15;;;;;;;30.23;20.50;;;24.70;99.90;;;;;;5086449;28;19904;-74
2021/06/18 08:03:41;;;;;;;29.38;18.65;;;24.80;99.90;;;;;;5088547;28;20514;-74
2021/06/18 08:06:07;;;;;;;26.85;20.48;;;24.90;99.90;;;;;;5088196;28;20016;-74
2021/06/18 08:08:32;;;;;;;26.92;19.75;;;25.10;99.90;;;;;;5087379;28;20023;-73
2021/06/18 08:10:58;;;;;;;30.63;19.08;;;25.10;99.90;;;;;;5088288;28;20492;-74
2021/06/18 08:13:23;;;;;;;20.30;17.98;;;25.00;99.90;;;;;;5088518;28;20434;-74
2021/06/18 08:15:49;;;;;;;24.38;16.67;;;25.10;99.90;;;;;;5087688;28;20024;-74
2021/06/18 08:18:14;;;;;;;19.75;15.07;;;25.20;99.90;;;;;;5088205;28;20020;-74
2021/06/18 08:20:40;;;;;;;23.15;18.08;;;25.40;99.90;;;;;;5087881;28;20032;-76
2021/06/18 08:23:05;;;;;;;21.90;15.68;;;25.10;99.90;;;;;;5087811;28;20101;-76
2021/06/18 08:25:31;;;;;;;26.52;16.10;;;24.60;99.90;;;;;;5087425;28;20077;-76
2021/06/18 08:27:57;;;;;;;28.67;16.73;;;24.40;99.90;;;;;;5087188;28;20062;-76
2021/06/18 08:30:24;;;;;;;25.70;13.57;;;24.30;99.90;;;;;;5087500;28;20028;-76
2021/06/18 08:32:51;;;;;;;24.95;13.30;;;24.20;99.90;;;;;;5088012;28;20034;-76
2021/06/18 08:35:18;;;;;;;22.55;13.95;;;24.20;99.90;;;;;;5085906;28;20484;-75
2021/06/18 08:37:44;;;;;;;16.23;13.30;;;24.30;99.90;;;;;;5087560;28;20063;-75
2021/06/18 08:40:10;;;;;;;22.70;14.18;;;24.40;99.90;;;;;;5087470;28;20024;-76
2021/06/18 08:42:36;;;;;;;21.48;14.45;;;24.70;99.90;;;;;;5087705;28;20024;-75
2021/06/18 08:45:03;;;;;;;21.83;13.50;;;25.10;99.90;;;;;;5087453;28;20024;-76
2021/06/18 08:47:29;;;;;;;24.67;14.50;;;25.20;99.90;;;;;;5087052;28;20020;-76
2021/06/18 08:49:54;;;;;;;22.10;14.57;;;25.30;99.90;;;;;;5088156;28;20027;-76
2021/06/18 08:52:20;;;;;;;26.40;16.50;;;25.10;99.90;;;;;;5087812;28;20686;-76
2021/06/18 08:54:46;;;;;;;26.48;15.77;;;24.50;99.90;;;;;;5087671;28;20396;-76
2021/06/18 08:57:18;;;;;;;18.67;14.25;;;24.20;99.90;;;;;;5089664;28;20051;-75
2021/06/18 08:59:44;;;;;;;26.27;15.20;;;24.00;99.90;;;;;;5090549;28;20031;-75
2021/06/18 09:02:12;;;;;;;23.30;15.23;;;23.90;99.90;;;;;;5091753;28;20480;-76
2021/06/18 09:05:10;;;;;;;21.40;14.75;;;23.80;99.90;;;;;;5091617;28;20028;-75
2021/06/18 09:08:02;;;;;;;18.60;14.15;;;23.70;99.90;;;;;;5091884;28;20115;-75
2021/06/18 09:10:40;;;;;;;23.40;14.20;;;23.80;99.90;;;;;;5091436;28;20035;-75
2021/06/18 09:13:22;;;;;;;15.73;12.93;;;23.90;99.90;;;;;;5082047;28;20016;-76
2021/06/18 09:15:56;;;;;;;20.92;16.80;;;24.00;99.90;;;;;;5089108;28;20024;-76
2021/06/18 09:18:39;;;;;;;20.73;15.77;;;24.30;99.90;;;;;;5110784;28;20023;-76
2021/06/18 09:21:14;;;;;;;18.75;14.25;;;25.00;99.90;;;;;;5110620;28;20087;-75
2021/06/18 09:23:42;;;;;;;18.23;13.43;;;25.80;99.90;;;;;;5111595;28;20038;-76
2021/06/18 09:33:16;;;;;;;16.60;11.70;;;27.20;99.90;;;;;;5098211;28;20078;-76
2021/06/18 09:36:01;;;;;;;17.52;12.50;;;27.10;99.90;;;;;;5087971;28;20361;-76
2021/06/18 09:38:46;;;;;;;15.35;10.95;;;27.20;99.90;;;;;;5076654;28;20023;-76
2021/06/18 09:41:29;;;;;;;12.88;9.40;;;27.40;99.90;;;;;;5074338;28;20051;-76
2021/06/18 09:44:27;;;;;;;20.52;11.27;;;27.50;99.90;;;;;;5072738;28;20036;-77
2021/06/18 09:46:57;;;;;;;18.05;11.65;;;27.80;99.90;;;;;;5065934;28;20024;-76
2021/06/18 09:49:34;;;;;;;15.80;11.50;;;27.70;99.90;;;;;;5074847;28;20392;-76
2021/06/18 09:52:11;;;;;;;16.27;11.02;;;27.50;99.90;;;;;;5074752;28;20078;-76
2021/06/18 09:54:43;;;;;;;12.70;10.65;;;27.50;99.90;;;;;;5074838;28;20416;-76
2021/06/18 09:57:18;;;;;;;16.35;12.18;;;27.60;99.90;;;;;;5074680;28;20082;-76
2021/06/18 10:00:04;;;;;;;13.18;9.40;;;28.00;99.90;;;;;;5074655;28;20079;-76
2021/06/18 10:02:52;;;;;;;13.60;9.07;;;28.30;99.90;;;;;;5074628;28;20556;-75
2021/06/18 10:05:20;;;;;;;17.60;8.82;;;28.50;99.90;;;;;;5074061;28;20070;-76
2021/06/18 10:07:50;;;;;;;12.68;9.02;;;28.40;99.90;;;;;;5073371;28;20111;-76
2021/06/18 10:10:18;;;;;;;14.90;7.90;;;28.50;99.90;;;;;;5072973;28;20021;-76
2021/06/18 10:12:44;;;;;;;10.55;8.02;;;28.70;99.90;;;;;;5075643;28;20038;-76
2021/06/18 10:15:11;;;;;;;9.75;7.30;;;28.80;99.90;;;;;;5094513;28;20502;-76
2021/06/18 10:17:39;;;;;;;8.55;6.97;;;29.10;99.90;;;;;;5094476;28;20036;-76
2021/06/18 10:20:08;;;;;;;12.02;5.25;;;29.10;99.90;;;;;;5094410;28;20051;-76
2021/06/18 10:22:38;;;;;;;9.50;6.07;;;29.10;99.90;;;;;;5094466;28;20024;-76
2021/06/18 10:25:07;;;;;;;10.95;9.05;;;29.00;99.90;;;;;;5094119;28;20024;-76
2021/06/18 10:27:47;;;;;;;13.68;9.88;;;29.10;99.90;;;;;;5094340;28;20020;-75
2021/06/18 10:30:22;;;;;;;15.60;10.13;;;29.30;99.90;;;;;;5075771;28;20054;-76
2021/06/18 10:32:47;;;;;;;9.98;8.35;;;29.10;99.90;;;;;;5088992;28;20481;-76
2021/06/18 10:35:40;;;;;;;16.95;8.90;;;29.30;99.90;;;;;;5094028;28;20043;-76
2021/06/18 10:38:24;;;;;;;13.02;8.80;;;29.30;99.90;;;;;;5094105;28;20478;-75
2021/06/18 10:40:50;;;;;;;16.67;8.18;;;29.20;99.90;;;;;;5092536;28;20028;-76
2021/06/18 11:14:02;;;;;;;14.15;6.40;;;30.00;99.90;;;;;;5072812;28;20023;-75
2021/06/18 11:16:35;;;;;;;9.53;5.37;;;30.00;99.90;;;;;;5073256;28;20025;-76
2021/06/18 11:19:19;;;;;;;8.82;4.72;;;30.20;99.90;;;;;;5078143;28;20028;-76
2021/06/18 11:21:45;;;;;;;13.30;5.00;;;30.50;99.90;;;;;;5087851;28;20008;-76
2021/06/18 11:24:10;;;;;;;14.05;5.63;;;30.80;99.90;;;;;;5088915;28;20077;-75
2021/06/18 11:26:36;;;;;;;17.60;6.30;;;30.90;99.90;;;;;;5087669;28;20376;-76
2021/06/18 11:29:22;;;;;;;13.50;6.93;;;30.60;99.90;;;;;;5088884;28;20024;-76
2021/06/18 11:31:50;;;;;;;8.93;5.57;;;30.40;99.90;;;;;;5089090;28;20058;-76
2021/06/18 11:34:27;;;;;;;8.23;6.05;;;30.50;99.90;;;;;;5089661;28;20024;-76
2021/06/18 11:36:54;;;;;;;8.30;5.38;;;30.70;99.90;;;;;;5080715;28;20028;-75
2021/06/18 11:39:21;;;;;;;11.00;4.63;;;30.80;99.90;;;;;;5089058;28;20016;-75
2021/06/18 11:41:54;;;;;;;10.65;6.28;;;31.00;99.90;;;;;;5087830;28;20031;-75
2021/06/18 11:44:21;;;;;;;15.10;6.35;;;31.10;99.90;;;;;;5092857;28;20410;-75
2021/06/18 11:46:51;;;;;;;10.98;6.13;;;31.20;99.90;;;;;;5091753;28;20030;-75
2021/06/18 11:49:20;;;;;;;18.38;7.38;;;31.10;99.90;;;;;;5091464;28;20120;-75
2021/06/18 11:51:51;;;;;;;15.35;6.07;;;31.00;99.90;;;;;;5091653;28;20034;-76
2021/06/18 11:54:36;;;;;;;10.30;5.28;;;31.10;99.90;;;;;;5085576;28;20020;-76
2021/06/18 11:57:10;;;;;;;7.00;5.22;;;31.60;99.90;;;;;;5078516;28;20179;-76
2021/06/18 11:59:39;;;;;;;10.90;4.53;;;31.80;99.90;;;;;;5087844;28;20032;-77
2021/06/18 12:02:15;;;;;;;8.90;4.93;;;32.10;99.90;;;;;;5085873;28;20157;-76
2021/06/18 12:04:41;;;;;;;6.90;5.15;;;32.50;99.90;;;;;;5092298;28;20032;-76
2021/06/18 12:07:07;;;;;;;9.73;5.82;;;32.20;99.90;;;;;;5092554;28;20020;-75
2021/06/18 12:09:40;;;;;;;10.20;4.88;;;31.90;99.90;;;;;;5092326;28;20016;-75
2021/06/18 12:12:08;;;;;;;25.92;5.30;;;31.80;99.90;;;;;;5092285;28;20024;-75
2021/06/18 12:14:39;;;;;;;18.17;5.78;;;31.80;99.90;;;;;;5090940;28;20034;-75
2021/06/18 12:17:06;;;;;;;8.90;4.30;;;32.00;99.90;;;;;;5100997;28;20443;-75
2021/06/18 12:19:34;;;;;;;6.25;4.22;;;32.60;99.90;;;;;;5094387;28;20549;-75
2021/06/18 12:22:02;;;;;;;6.75;4.68;;;33.00;99.90;;;;;;5092063;28;20028;-74
2021/06/18 12:24:30;;;;;;;10.93;5.35;;;33.10;99.90;;;;;;5090483;28;20054;-74
2021/06/18 12:26:57;;;;;;;10.30;4.60;;;33.40;99.90;;;;;;5092208;28;20020;-76
2021/06/18 12:29:24;;;;;;;7.00;3.95;;;33.60;99.90;;;;;;5092177;28;20047;-75
2021/06/18 12:31:52;;;;;;;5.22;3.72;;;34.00;99.90;;;;;;5091939;28;20476;-76
2021/06/18 12:34:17;;;;;;;6.63;3.80;;;34.50;99.90;;;;;;5090607;28;20028;-75
2021/06/18 12:36:43;;;;;;;8.73;4.47;;;34.20;99.90;;;;;;5092068;28;20035;-76
2021/06/18 12:39:12;;;;;;;11.02;4.90;;;34.30;99.90;;;;;;5092053;28;20028;-75
2021/06/18 12:41:39;;;;;;;15.10;4.75;;;34.40;99.90;;;;;;5085556;28;20016;-76
2021/06/18 12:44:08;;;;;;;13.90;4.15;;;34.70;99.90;;;;;;5082895;28;20032;-75
2021/06/18 12:46:34;;;;;;;5.13;3.13;;;34.60;99.90;;;;;;5085183;28;20139;-76
2021/06/18 12:51:37;;;;;;;9.98;3.78;;;35.10;99.90;;;;;;6005239;22;20148;-80
2021/06/18 12:54:07;;;;;;;10.82;3.58;;;35.30;99.90;;;;;;5085442;28;20040;-80
2021/06/18 12:56:59;;;;;;;10.90;4.05;;;35.60;99.90;;;;;;5084538;28;20067;-82
2021/06/18 12:59:38;;;;;;;7.13;4.10;;;35.80;99.90;;;;;;5066710;28;20089;-81
2021/06/18 13:02:04;;;;;;;9.05;3.35;;;35.50;97.40;;;;;;5088977;28;20028;-81
2021/06/18 13:04:34;;;;;;;12.82;3.58;;;35.10;99.90;;;;;;5112243;28;20432;-81
2021/06/18 13:07:00;;;;;;;6.25;4.03;;;35.70;99.90;;;;;;5110898;28;20077;-80
2021/06/18 13:09:38;;;;;;;10.57;3.80;;;36.00;99.10;;;;;;5110974;28;20016;-81
2021/06/18 13:12:05;;;;;;;11.30;3.83;;;35.70;98.70;;;;;;5111815;28;20022;-81